Time;durP1;ratioP1;P1;durP2;ratioP2;P2;SDS_P1;SDS_P2;PMS_P1;PMS_P2;Temp;Humidity;BMP_temperature;BMP_pressure;BME280_temperature;BME280_humidity;BME280_pressure;Samples;Min_cycle;Max_cycle;Signal;HPM_P1;HPM_P2
2022/08/01 00:00:37;;;;;;;4.13;2.30;;;;;;;;;;5028844;28;20270;-76
2022/08/01 00:03:03;;;;;;;4.30;2.45;;;;;;;;;;5029218;28;20029;-76
2022/08/01 00:05:30;;;;;;;3.83;2.17;;;;;;;;;;5018566;28;20468;-76
2022/08/01 00:07:56;;;;;;;2.30;2.10;;;;;;;;;;5029075;28;20014;-77
2022/08/01 00:10:22;;;;;;;3.65;2.20;;;;;;;;;;5029510;28;20100;-76
2022/08/01 00:12:48;;;;;;;2.95;2.35;;;;;;;;;;5028858;28;20651;-77
2022/08/01 00:15:15;;;;;;;2.83;2.20;;;;;;;;;;5028436;28;20392;-76
2022/08/01 00:17:42;;;;;;;3.63;2.70;;;;;;;;;;5029168;28;20026;-76
2022/08/01 00:20:09;;;;;;;4.22;3.22;;;;;;;;;;5028859;28;20155;-77
2022/08/01 00:22:35;;;;;;;2.65;2.25;;;;;;;;;;5021952;28;20043;-76
2022/08/01 00:25:02;;;;;;;5.53;2.50;;;;;;;;;;5023363;28;20282;-77
2022/08/01 00:27:28;;;;;;;3.70;2.67;;;;;;;;;;5023402;28;20056;-77
2022/08/01 00:29:54;;;;;;;4.13;2.60;;;;;;;;;;5023897;28;20025;-76
2022/08/01 00:32:20;;;;;;;5.75;2.63;;;;;;;;;;5020537;28;20030;-76
2022/08/01 00:34:46;;;;;;;5.25;2.97;;;;;;;;;;5028021;28;20029;-76
2022/08/01 00:37:13;;;;;;;2.97;2.50;;;;;;;;;;5024526;28;20052;-75
2022/08/01 00:39:39;;;;;;;6.22;3.10;;;;;;;;;;5021256;28;20029;-77
2022/08/01 00:42:09;;;;;;;3.33;2.80;;;;;;;;;;5026483;28;20546;-76
2022/08/01 00:44:35;;;;;;;4.63;3.20;;;;;;;;;;5024372;28;20029;-76
2022/08/01 00:47:01;;;;;;;4.28;3.08;;;;;;;;;;5024110;28;20419;-75
2022/08/01 00:49:28;;;;;;;3.97;3.15;;;;;;;;;;5026007;28;20025;-76
2022/08/01 00:51:54;;;;;;;3.03;2.42;;;;;;;;;;5026177;28;20096;-77
2022/08/01 00:54:21;;;;;;;2.92;2.63;;;;;;;;;;5025838;28;20251;-77
2022/08/01 00:56:47;;;;;;;4.07;2.67;;;;;;;;;;5026014;28;20037;-76
2022/08/01 00:59:14;;;;;;;4.75;3.33;;;;;;;;;;5017461;28;20550;-77
2022/08/01 01:01:41;;;;;;;3.63;2.92;;;;;;;;;;5027206;28;20036;-77
2022/08/01 01:04:07;;;;;;;3.28;2.78;;;;;;;;;;5027950;28;20199;-76
2022/08/01 01:06:33;;;;;;;4.40;2.95;;;;;;;;;;5026110;28;20028;-76
2022/08/01 01:09:03;;;;;;;5.45;2.92;;;;;;;;;;5026564;28;20491;-77
2022/08/01 01:11:32;;;;;;;4.72;2.92;;;;;;;;;;5026895;28;20025;-77
2022/08/01 01:14:01;;;;;;;3.22;2.42;;;;;;;;;;5021656;28;20029;-76
2022/08/01 01:16:30;;;;;;;3.92;2.67;;;;;;;;;;5016956;28;20518;-76
2022/08/01 01:19:00;;;;;;;5.20;2.70;;;;;;;;;;5019016;28;20369;-77
2022/08/01 01:21:45;;;;;;;4.43;2.72;;;;;;;;;;5026678;28;20032;-76
2022/08/01 01:24:20;;;;;;;3.25;2.50;;;;;;;;;;5017142;28;20071;-77
2022/08/01 01:27:02;;;;;;;3.03;2.30;;;;;;;;;;5026670;28;20025;-76
2022/08/01 01:29:31;;;;;;;3.28;2.70;;;;;;;;;;5027606;28;20347;-76
2022/08/01 01:32:05;;;;;;;3.22;2.28;;;;;;;;;;5028016;28;20079;-76
2022/08/01 01:34:32;;;;;;;2.88;2.60;;;;;;;;;;5028807;28;20028;-77
2022/08/01 01:37:00;;;;;;;3.47;2.60;;;;;;;;;;5028247;28;20030;-77
2022/08/01 01:39:27;;;;;;;3.45;2.45;;;;;;;;;;5027193;28;20124;-77
2022/08/01 01:41:54;;;;;;;2.75;2.35;;;;;;;;;;5026605;28;20061;-76
2022/08/01 01:44:20;;;;;;;2.78;2.30;;;;;;;;;;5018957;28;20037;-78
2022/08/01 01:46:47;;;;;;;3.08;2.10;;;;;;;;;;5028045;28;20487;-77
2022/08/01 01:49:14;;;;;;;5.40;2.58;;;;;;;;;;5026945;28;20051;-77
2022/08/01 01:51:42;;;;;;;3.30;2.20;;;;;;;;;;5036872;28;20028;-77
2022/08/01 01:54:08;;;;;;;3.50;2.20;;;;;;;;;;5026839;28;20033;-77
2022/08/01 01:56:35;;;;;;;2.58;2.25;;;;;;;;;;5021080;28;20480;-77
2022/08/01 01:59:02;;;;;;;3.95;3.05;;;;;;;;;;5027053;28;20499;-77
2022/08/01 02:01:29;;;;;;;3.03;2.38;;;;;;;;;;5028337;28;20451;-77
2022/08/01 02:03:57;;;;;;;4.65;2.92;;;;;;;;;;5026624;28;20108;-76
2022/08/01 02:06:25;;;;;;;4.05;2.67;;;;;;;;;;5025998;28;20032;-77
2022/08/01 02:08:52;;;;;;;3.35;2.50;;;;;;;;;;5025153;28;20426;-77
2022/08/01 02:11:20;;;;;;;2.90;2.60;;;;;;;;;;5024985;28;20067;-77
2022/08/01 02:14:13;;;;;;;3.60;2.85;;;;;;;;;;5026516;28;20030;-78
2022/08/01 02:16:41;;;;;;;2.97;2.67;;;;;;;;;;5026785;28;20041;-77
2022/08/01 02:19:07;;;;;;;4.25;2.65;;;;;;;;;;5027623;28;20048;-77
2022/08/01 02:21:35;;;;;;;3.40;2.42;;;;;;;;;;5024673;28;20025;-78
2022/08/01 02:24:05;;;;;;;5.63;2.80;;;;;;;;;;5026302;28;20013;-77
2022/08/01 02:26:31;;;;;;;3.28;2.50;;;;;;;;;;5032658;28;20025;-77
2022/08/01 02:28:59;;;;;;;2.60;2.40;;;;;;;;;;5029212;28;20067;-77
2022/08/01 02:31:26;;;;;;;3.17;2.60;;;;;;;;;;5027524;28;20116;-77
2022/08/01 02:34:03;;;;;;;3.47;2.90;;;;;;;;;;5029206;28;20029;-76
2022/08/01 02:36:30;;;;;;;6.53;2.60;;;;;;;;;;5026020;28;20041;-77
2022/08/01 02:38:57;;;;;;;2.60;2.40;;;;;;;;;;5026447;28;20112;-77
2022/08/01 02:41:25;;;;;;;6.35;2.65;;;;;;;;;;5029661;28;20116;-76
2022/08/01 02:43:52;;;;;;;4.28;2.40;;;;;;;;;;5028455;28;20484;-77
2022/08/01 02:46:24;;;;;;;2.72;2.47;;;;;;;;;;5028212;28;20478;-78
2022/08/01 02:48:52;;;;;;;3.58;2.58;;;;;;;;;;5029600;28;20021;-77
2022/08/01 02:51:20;;;;;;;4.35;2.65;;;;;;;;;;5029054;28;20434;-77
2022/08/01 02:53:47;;;;;;;4.70;2.50;;;;;;;;;;5026073;28;20025;-76
2022/08/01 02:56:14;;;;;;;3.45;2.80;;;;;;;;;;5024240;28;20384;-77
2022/08/01 02:58:41;;;;;;;4.53;2.58;;;;;;;;;;5018155;28;20025;-76
2022/08/01 03:01:08;;;;;;;3.75;2.70;;;;;;;;;;5019951;28;20025;-77
2022/08/01 03:03:34;;;;;;;5.78;2.83;;;;;;;;;;5027540;28;20029;-77
2022/08/01 03:06:02;;;;;;;4.40;2.60;;;;;;;;;;5030743;28;20483;-77
2022/08/01 03:08:29;;;;;;;4.60;2.90;;;;;;;;;;5029108;28;20521;-77
2022/08/01 03:10:55;;;;;;;3.50;2.60;;;;;;;;;;5029926;28;20025;-77
2022/08/01 03:13:22;;;;;;;5.20;2.50;;;;;;;;;;5024584;28;20483;-77
2022/08/01 03:15:48;;;;;;;4.47;2.90;;;;;;;;;;5030032;28;20062;-78
2022/08/01 03:18:15;;;;;;;5.47;2.83;;;;;;;;;;5027624;28;20033;-77
2022/08/01 03:20:42;;;;;;;3.08;2.78;;;;;;;;;;5030504;28;20044;-77
2022/08/01 03:23:10;;;;;;;4.60;2.70;;;;;;;;;;5030359;28;20025;-76
2022/08/01 03:25:39;;;;;;;3.33;2.80;;;;;;;;;;5024721;28;20036;-77
2022/08/01 03:28:07;;;;;;;3.08;2.78;;;;;;;;;;5022980;28;20036;-78
2022/08/01 03:30:33;;;;;;;3.67;2.78;;;;;;;;;;5028797;28;20037;-77
2022/08/01 03:33:00;;;;;;;3.38;2.60;;;;;;;;;;5029840;28;20025;-77
2022/08/01 03:35:34;;;;;;;4.20;2.95;;;;;;;;;;5024013;28;20136;-77
2022/08/01 03:38:02;;;;;;;3.13;2.83;;;;;;;;;;5022361;28;20057;-76
2022/08/01 03:40:48;;;;;;;5.43;2.70;;;;;;;;;;5026226;28;20113;-76
2022/08/01 03:43:19;;;;;;;3.72;2.67;;;;;;;;;;5028876;28;20618;-76
2022/08/01 03:45:51;;;;;;;7.28;3.50;;;;;;;;;;5028534;28;20030;-76
2022/08/01 03:48:17;;;;;;;4.78;3.15;;;;;;;;;;5029073;28;20077;-76
2022/08/01 03:50:46;;;;;;;6.35;3.65;;;;;;;;;;5026579;28;20476;-77
2022/08/01 03:53:12;;;;;;;5.35;3.13;;;;;;;;;;5020068;28;20484;-76
2022/08/01 03:55:39;;;;;;;3.38;3.08;;;;;;;;;;5020847;28;20030;-75
2022/08/01 03:58:06;;;;;;;7.25;3.22;;;;;;;;;;5028226;28;20037;-76
2022/08/01 04:00:33;;;;;;;5.30;2.80;;;;;;;;;;5027716;28;20065;-77
2022/08/01 04:02:59;;;;;;;3.97;3.22;;;;;;;;;;5025870;28;20033;-76
2022/08/01 04:05:25;;;;;;;6.57;3.10;;;;;;;;;;5029596;28;20087;-76
2022/08/01 04:07:55;;;;;;;4.97;2.90;;;;;;;;;;5028806;28;20045;-77
2022/08/01 04:10:24;;;;;;;4.88;3.28;;;;;;;;;;5030917;28;20455;-77
2022/08/01 04:12:50;;;;;;;4.75;3.25;;;;;;;;;;5026378;28;20558;-77
2022/08/01 04:15:17;;;;;;;8.55;4.53;;;;;;;;;;5028353;28;20373;-77
2022/08/01 04:17:43;;;;;;;10.15;4.80;;;;;;;;;;5025594;28;20105;-76
2022/08/01 04:20:10;;;;;;;15.38;4.65;;;;;;;;;;5029452;28;20043;-77
2022/08/01 04:22:37;;;;;;;25.05;5.38;;;;;;;;;;5030062;28;20705;-76
2022/08/01 04:25:05;;;;;;;28.08;5.80;;;;;;;;;;5028556;28;20476;-77
2022/08/01 04:27:33;;;;;;;62.35;7.55;;;;;;;;;;5026614;28;20033;-76
2022/08/01 04:30:01;;;;;;;17.98;5.45;;;;;;;;;;5028631;28;20021;-77
2022/08/01 04:32:28;;;;;;;57.42;7.15;;;;;;;;;;5028613;28;20080;-76
2022/08/01 04:34:55;;;;;;;24.55;6.40;;;;;;;;;;5027362;28;20407;-77
2022/08/01 04:37:23;;;;;;;26.92;6.25;;;;;;;;;;5022945;28;20053;-76
2022/08/01 04:39:51;;;;;;;44.95;7.10;;;;;;;;;;5027354;28;20479;-77
2022/08/01 04:42:18;;;;;;;25.38;6.82;;;;;;;;;;5026252;28;20042;-78
2022/08/01 04:44:44;;;;;;;20.58;5.75;;;;;;;;;;5027633;28;20021;-77
2022/08/01 04:47:11;;;;;;;21.13;6.93;;;;;;;;;;5028463;28;20391;-76
2022/08/01 04:49:37;;;;;;;38.60;6.65;;;;;;;;;;5028500;28;20029;-76
2022/08/01 04:52:05;;;;;;;74.47;9.43;;;;;;;;;;5025759;28;20064;-76
2022/08/01 04:54:33;;;;;;;23.00;5.88;;;;;;;;;;5028092;28;20075;-78
2022/08/01 04:57:00;;;;;;;14.80;5.90;;;;;;;;;;5029237;28;20109;-75
2022/08/01 04:59:39;;;;;;;15.95;5.72;;;;;;;;;;5022317;28;20025;-77
2022/08/01 05:02:05;;;;;;;13.63;5.85;;;;;;;;;;5028003;28;20532;-77
2022/08/01 05:04:31;;;;;;;53.38;7.63;;;;;;;;;;5027673;28;20025;-79
2022/08/01 05:06:58;;;;;;;29.25;7.03;;;;;;;;;;5013921;28;20435;-77
2022/08/01 05:09:24;;;;;;;20.38;6.32;;;;;;;;;;5027020;28;20037;-77
2022/08/01 05:11:50;;;;;;;18.08;6.82;;;;;;;;;;5026941;28;20036;-76
2022/08/01 05:14:16;;;;;;;24.38;7.68;;;;;;;;;;5026467;28;20472;-78
2022/08/01 05:16:42;;;;;;;21.23;6.63;;;;;;;;;;5027860;28;20026;-78
2022/08/01 05:19:08;;;;;;;12.15;6.38;;;;;;;;;;5027697;28;20064;-78
2022/08/01 05:21:35;;;;;;;18.67;6.60;;;;;;;;;;5026881;28;20029;-77
2022/08/01 05:24:02;;;;;;;45.08;8.57;;;;;;;;;;5028325;28;20591;-77
2022/08/01 05:26:28;;;;;;;22.63;7.93;;;;;;;;;;5028522;28;20029;-77
2022/08/01 05:28:54;;;;;;;21.58;7.60;;;;;;;;;;5025547;28;20429;-78
2022/08/01 05:31:20;;;;;;;13.15;6.90;;;;;;;;;;5023274;28;20052;-77
2022/08/01 05:33:46;;;;;;;18.98;7.03;;;;;;;;;;5028015;28;20396;-76
2022/08/01 05:36:12;;;;;;;15.65;7.00;;;;;;;;;;5026754;28;20049;-77
2022/08/01 05:38:38;;;;;;;10.50;7.03;;;;;;;;;;5025842;28;20391;-77
2022/08/01 05:41:05;;;;;;;9.15;6.65;;;;;;;;;;5025911;28;20075;-77
2022/08/01 05:43:31;;;;;;;20.00;7.15;;;;;;;;;;5025443;28;20025;-79
2022/08/01 05:45:58;;;;;;;33.05;8.48;;;;;;;;;;5024691;28;20021;-77
2022/08/01 05:48:24;;;;;;;12.57;6.97;;;;;;;;;;5024024;28;20397;-77
2022/08/01 05:50:51;;;;;;;12.68;6.70;;;;;;;;;;5024784;28;20026;-77
2022/08/01 05:53:17;;;;;;;12.77;7.22;;;;;;;;;;5025545;28;21170;-77
2022/08/01 05:55:43;;;;;;;8.70;6.32;;;;;;;;;;5023966;28;20027;-77
2022/08/01 05:58:09;;;;;;;9.15;6.45;;;;;;;;;;5026168;28;20403;-77
2022/08/01 06:00:35;;;;;;;16.42;6.88;;;;;;;;;;5030667;28;20030;-77
2022/08/01 06:03:01;;;;;;;11.85;6.18;;;;;;;;;;5030610;28;20372;-77
2022/08/01 06:05:28;;;;;;;30.92;7.15;;;;;;;;;;5031276;28;20029;-77
2022/08/01 06:07:54;;;;;;;10.63;6.28;;;;;;;;;;5030884;28;20507;-77
2022/08/01 06:10:20;;;;;;;9.77;5.72;;;;;;;;;;5030789;28;20466;-76
2022/08/01 06:12:46;;;;;;;8.35;6.03;;;;;;;;;;5030183;28;20041;-77
2022/08/01 06:15:12;;;;;;;9.15;5.45;;;;;;;;;;5031308;28;20515;-76
2022/08/01 06:17:39;;;;;;;8.13;6.07;;;;;;;;;;5029038;28;20037;-77
2022/08/01 06:20:06;;;;;;;12.18;6.50;;;;;;;;;;5030225;28;20053;-76
2022/08/01 06:22:32;;;;;;;7.07;5.57;;;;;;;;;;5030792;28;20010;-76
2022/08/01 06:24:58;;;;;;;13.38;5.43;;;;;;;;;;5028776;28;20017;-76
2022/08/01 06:27:27;;;;;;;8.10;5.18;;;;;;;;;;5028987;28;20026;-78
2022/08/01 06:29:53;;;;;;;7.50;5.43;;;;;;;;;;5031914;28;20021;-78
2022/08/01 06:32:22;;;;;;;11.32;6.53;;;;;;;;;;5025733;28;20025;-77
2022/08/01 06:34:48;;;;;;;6.38;5.32;;;;;;;;;;5031425;28;20472;-77
2022/08/01 06:37:15;;;;;;;7.75;5.25;;;;;;;;;;5030301;28;20053;-77
2022/08/01 06:39:41;;;;;;;8.05;5.28;;;;;;;;;;5030805;28;20036;-77
2022/08/01 06:42:09;;;;;;;9.10;5.93;;;;;;;;;;5027261;28;20037;-77
2022/08/01 06:44:35;;;;;;;6.63;5.43;;;;;;;;;;5026880;28;20026;-78
2022/08/01 06:47:01;;;;;;;9.77;5.18;;;;;;;;;;5026107;28;20144;-77
2022/08/01 06:49:27;;;;;;;8.32;5.45;;;;;;;;;;5031204;28;20026;-77
2022/08/01 06:51:54;;;;;;;6.20;5.30;;;;;;;;;;5028200;28;20029;-78
2022/08/01 06:54:21;;;;;;;8.27;4.90;;;;;;;;;;5026193;28;20037;-77
2022/08/01 06:56:47;;;;;;;6.97;5.10;;;;;;;;;;5030238;28;20491;-77
2022/08/01 06:59:13;;;;;;;10.40;4.95;;;;;;;;;;5028518;28;20037;-77
2022/08/01 07:01:39;;;;;;;6.68;5.30;;;;;;;;;;5030703;28;20025;-77
2022/08/01 07:04:05;;;;;;;5.68;4.40;;;;;;;;;;5030302;28;20483;-77
2022/08/01 07:06:31;;;;;;;7.38;4.90;;;;;;;;;;5027527;28;20120;-78
2022/08/01 07:08:57;;;;;;;6.07;4.38;;;;;;;;;;5027903;28;20025;-78
2022/08/01 07:11:24;;;;;;;4.65;3.95;;;;;;;;;;5029947;28;20026;-77
2022/08/01 07:13:50;;;;;;;5.88;4.13;;;;;;;;;;5022723;28;20022;-77
2022/08/01 07:16:17;;;;;;;3.90;3.30;;;;;;;;;;5029610;28;20175;-78
2022/08/01 07:18:43;;;;;;;4.40;3.80;;;;;;;;;;5030747;28;20025;-78
2022/08/01 07:21:09;;;;;;;5.82;3.40;;;;;;;;;;5029374;28;20447;-77
2022/08/01 07:23:35;;;;;;;5.03;3.33;;;;;;;;;;5029156;28;20399;-77
2022/08/01 07:26:01;;;;;;;4.03;3.38;;;;;;;;;;5025980;28;20026;-78
2022/08/01 07:28:28;;;;;;;6.72;4.15;;;;;;;;;;5028729;28;20092;-77
2022/08/01 07:30:54;;;;;;;4.05;3.65;;;;;;;;;;5030218;28;20053;-77
2022/08/01 07:33:22;;;;;;;3.85;3.40;;;;;;;;;;5029850;28;20035;-77
2022/08/01 07:35:48;;;;;;;4.18;3.17;;;;;;;;;;5029020;28;20047;-78
2022/08/01 07:38:16;;;;;;;4.13;3.72;;;;;;;;;;5028331;28;20041;-78
2022/08/01 07:40:42;;;;;;;3.63;3.33;;;;;;;;;;5029762;28;20029;-77
2022/08/01 07:43:08;;;;;;;3.90;3.50;;;;;;;;;;5027744;28;20040;-78
2022/08/01 07:45:35;;;;;;;3.60;3.20;;;;;;;;;;5029138;28;20041;-77
2022/08/01 07:48:07;;;;;;;4.68;3.60;;;;;;;;;;5028701;28;20018;-77
2022/08/01 07:50:33;;;;;;;4.68;3.85;;;;;;;;;;5028346;28;20430;-77
2022/08/01 07:53:00;;;;;;;6.88;4.22;;;;;;;;;;5028695;28;20030;-76
2022/08/01 07:55:26;;;;;;;5.35;3.50;;;;;;;;;;5028248;28;20039;-77
2022/08/01 07:57:52;;;;;;;3.75;3.33;;;;;;;;;;5029402;28;20049;-77
2022/08/01 08:00:18;;;;;;;3.97;3.00;;;;;;;;;;5026377;28;20319;-77
2022/08/01 08:02:44;;;;;;;4.10;3.22;;;;;;;;;;5027525;28;20026;-78
2022/08/01 08:05:11;;;;;;;3.90;3.42;;;;;;;;;;5028427;28;20068;-79
2022/08/01 08:07:37;;;;;;;4.65;3.00;;;;;;;;;;5030281;28;20034;-78
2022/08/01 08:10:04;;;;;;;4.28;2.85;;;;;;;;;;5030907;28;20036;-77
2022/08/01 08:12:30;;;;;;;4.03;2.92;;;;;;;;;;5031023;28;20056;-77
2022/08/01 08:14:58;;;;;;;3.15;2.80;;;;;;;;;;5028869;28;20422;-77
2022/08/01 08:17:25;;;;;;;4.25;2.85;;;;;;;;;;5031883;28;20025;-77
2022/08/01 08:19:51;;;;;;;3.30;2.78;;;;;;;;;;5023267;28;20033;-78
2022/08/01 08:22:17;;;;;;;5.38;3.00;;;;;;;;;;5028515;28;20029;-77
2022/08/01 08:24:44;;;;;;;3.20;2.55;;;;;;;;;;5015587;28;20037;-76
2022/08/01 08:27:10;;;;;;;3.28;2.97;;;;;;;;;;5027391;28;20072;-77
2022/08/01 08:29:36;;;;;;;3.25;2.95;;;;;;;;;;5026805;28;20061;-78
2022/08/01 08:32:02;;;;;;;4.50;3.10;;;;;;;;;;5025820;28;20036;-77
2022/08/01 08:34:29;;;;;;;3.63;3.13;;;;;;;;;;5023712;28;20426;-78
2022/08/01 08:36:56;;;;;;;3.10;2.50;;;;;;;;;;5028829;28;20021;-77
2022/08/01 08:39:22;;;;;;;3.17;2.70;;;;;;;;;;5028690;28;20121;-77
2022/08/01 08:41:48;;;;;;;5.00;2.60;;;;;;;;;;5026653;28;20478;-78
2022/08/01 08:44:15;;;;;;;3.05;2.60;;;;;;;;;;5027803;28;20060;-77
2022/08/01 08:46:43;;;;;;;3.65;2.40;;;;;;;;;;5024409;28;20122;-78
2022/08/01 08:49:10;;;;;;;4.68;2.60;;;;;;;;;;5029094;28;20029;-77
2022/08/01 08:51:38;;;;;;;3.92;3.13;;;;;;;;;;5027963;28;20032;-78
2022/08/01 08:54:06;;;;;;;4.18;2.22;;;;;;;;;;5028898;28;20029;-78
2022/08/01 08:56:34;;;;;;;2.55;2.03;;;;;;;;;;5023896;28;20357;-78
2022/08/01 08:59:00;;;;;;;3.03;2.20;;;;;;;;;;5026984;28;20025;-76
2022/08/01 09:01:27;;;;;;;3.60;2.20;;;;;;;;;;5022155;28;20491;-77
2022/08/01 09:03:53;;;;;;;3.28;2.70;;;;;;;;;;5023890;28;20037;-77
2022/08/01 09:06:20;;;;;;;3.22;2.45;;;;;;;;;;5022616;28;20075;-78
2022/08/01 09:08:46;;;;;;;1.90;1.80;;;;;;;;;;5026442;28;20021;-78
2022/08/01 09:11:12;;;;;;;4.57;2.25;;;;;;;;;;5029240;28;20029;-77
2022/08/01 09:13:39;;;;;;;2.45;1.70;;;;;;;;;;5026630;28;20072;-77
2022/08/01 09:16:05;;;;;;;2.35;2.10;;;;;;;;;;5025471;28;20036;-78
2022/08/01 09:18:34;;;;;;;5.70;3.15;;;;;;;;;;5024446;28;20043;-77
2022/08/01 09:21:11;;;;;;;2.10;1.90;;;;;;;;;;5023367;28;20045;-78
2022/08/01 09:23:42;;;;;;;2.45;2.22;;;;;;;;;;5024086;28;20029;-79
2022/08/01 09:26:12;;;;;;;3.45;1.90;;;;;;;;;;5026018;28;20032;-78
2022/08/01 09:28:39;;;;;;;2.55;1.90;;;;;;;;;;5030140;28;20025;-78
2022/08/01 09:31:09;;;;;;;2.00;1.80;;;;;;;;;;5027923;28;20092;-78
2022/08/01 09:33:54;;;;;;;3.65;2.08;;;;;;;;;;5030170;28;20032;-78
2022/08/01 09:36:24;;;;;;;2.30;2.10;;;;;;;;;;5029190;28;20378;-77
2022/08/01 09:38:51;;;;;;;2.25;1.90;;;;;;;;;;5029067;28;20056;-78
2022/08/01 09:41:18;;;;;;;2.65;1.70;;;;;;;;;;5029683;28;20308;-77
2022/08/01 09:43:50;;;;;;;2.28;2.08;;;;;;;;;;5025413;28;20071;-78
2022/08/01 09:46:17;;;;;;;2.28;2.00;;;;;;;;;;5028976;28;20048;-77
2022/08/01 09:48:55;;;;;;;2.40;1.83;;;;;;;;;;5029684;28;20022;-78
2022/08/01 09:51:28;;;;;;;2.13;1.88;;;;;;;;;;5023366;28;20108;-78
2022/08/01 09:53:55;;;;;;;2.10;1.90;;;;;;;;;;5030755;28;20029;-78
2022/08/01 09:56:22;;;;;;;2.30;1.90;;;;;;;;;;5026862;28;20036;-80
2022/08/01 09:58:56;;;;;;;2.40;1.98;;;;;;;;;;5030756;28;20102;-78
2022/08/01 10:01:22;;;;;;;2.92;1.88;;;;;;;;;;5024038;28;20021;-78
2022/08/01 10:04:04;;;;;;;4.13;2.00;;;;;;;;;;5024902;28;20440;-78
2022/08/01 10:06:30;;;;;;;1.90;1.77;;;;;;;;;;5028456;28;20036;-79
2022/08/01 10:08:56;;;;;;;2.03;1.80;;;;;;;;;;5029367;28;20045;-79
2022/08/01 10:11:23;;;;;;;3.42;1.92;;;;;;;;;;5024412;28;20204;-77
2022/08/01 10:13:50;;;;;;;2.33;1.95;;;;;;;;;;5014129;28;20033;-79
2022/08/01 10:16:16;;;;;;;2.03;1.80;;;;;;;;;;5018684;28;20033;-78
2022/08/01 10:18:42;;;;;;;2.15;1.85;;;;;;;;;;5021749;28;20029;-80
2022/08/01 10:21:08;;;;;;;2.28;1.80;;;;;;;;;;5019280;28;20507;-77
2022/08/01 10:23:35;;;;;;;1.75;1.65;;;;;;;;;;5020073;28;20029;-79
2022/08/01 10:26:02;;;;;;;3.15;2.20;;;;;;;;;;5018194;28;20022;-78
2022/08/01 10:28:30;;;;;;;2.40;1.90;;;;;;;;;;5023707;28;20472;-78
2022/08/01 10:30:57;;;;;;;2.38;1.85;;;;;;;;;;5018579;28;20155;-78
2022/08/01 10:33:24;;;;;;;2.15;1.90;;;;;;;;;;5019708;28;20527;-78
2022/08/01 10:35:51;;;;;;;2.92;1.80;;;;;;;;;;5020186;28;20048;-80
2022/08/01 10:38:17;;;;;;;2.03;1.83;;;;;;;;;;5021874;28;20077;-79
2022/08/01 10:40:44;;;;;;;2.10;1.80;;;;;;;;;;5019258;28;20112;-79
2022/08/01 10:43:11;;;;;;;2.63;2.00;;;;;;;;;;5016174;28;20042;-77
2022/08/01 10:45:37;;;;;;;2.17;1.98;;;;;;;;;;5017516;28;20026;-77
2022/08/01 10:48:06;;;;;;;2.10;1.88;;;;;;;;;;5017399;28;20530;-77
2022/08/01 10:50:34;;;;;;;2.75;1.88;;;;;;;;;;5025847;28;20021;-78
2022/08/01 10:53:20;;;;;;;1.80;1.65;;;;;;;;;;5024576;28;20017;-78
2022/08/01 10:55:58;;;;;;;1.63;1.52;;;;;;;;;;5023069;28;20038;-78
2022/08/01 10:58:36;;;;;;;3.03;1.90;;;;;;;;;;5016742;28;20025;-78
2022/08/01 11:01:18;;;;;;;2.20;1.90;;;;;;;;;;5024000;28;20484;-78
2022/08/01 11:04:03;;;;;;;4.50;2.28;;;;;;;;;;5023097;28;20365;-78
2022/08/01 11:06:29;;;;;;;2.95;1.77;;;;;;;;;;5023831;28;20972;-79
2022/08/01 11:08:56;;;;;;;5.00;2.00;;;;;;;;;;5024176;28;20030;-78
2022/08/01 11:11:22;;;;;;;2.65;1.92;;;;;;;;;;5022917;28;20123;-78
2022/08/01 11:14:00;;;;;;;4.57;2.65;;;;;;;;;;5022180;28;20658;-78
2022/08/01 11:16:37;;;;;;;1.92;1.77;;;;;;;;;;5019938;28;20037;-78
2022/08/01 11:19:04;;;;;;;2.83;1.90;;;;;;;;;;5026239;28;20059;-79
2022/08/01 11:21:49;;;;;;;2.25;2.00;;;;;;;;;;5024308;28;20557;-77
2022/08/01 11:24:15;;;;;;;4.18;2.05;;;;;;;;;;5022423;28;20569;-79
2022/08/01 11:27:01;;;;;;;5.25;1.83;;;;;;;;;;5031560;28;20050;-79
2022/08/01 11:29:27;;;;;;;2.83;2.00;;;;;;;;;;5026823;28;20022;-78
2022/08/01 11:31:53;;;;;;;2.38;2.10;;;;;;;;;;5022808;28;20029;-79
2022/08/01 11:34:19;;;;;;;3.25;2.15;;;;;;;;;;5021315;28;20029;-78
2022/08/01 11:36:45;;;;;;;2.35;1.95;;;;;;;;;;5022116;28;20064;-79
2022/08/01 11:39:13;;;;;;;1.67;1.58;;;;;;;;;;5021383;28;20056;-81
2022/08/01 11:41:39;;;;;;;2.20;1.77;;;;;;;;;;5020808;28;20505;-78
2022/08/01 11:44:08;;;;;;;2.55;1.75;;;;;;;;;;5023551;28;20464;-76
2022/08/01 11:46:58;;;;;;;1.90;1.70;;;;;;;;;;5018862;28;20026;-77
2022/08/01 11:49:24;;;;;;;2.00;1.80;;;;;;;;;;5020325;28;20489;-78
2022/08/01 11:52:10;;;;;;;2.80;2.15;;;;;;;;;;5020711;28;20021;-79
2022/08/01 11:54:38;;;;;;;3.75;2.92;;;;;;;;;;5016995;28;20026;-78
2022/08/01 11:57:06;;;;;;;3.28;2.53;;;;;;;;;;5018169;28;20030;-78
2022/08/01 11:59:39;;;;;;;2.05;1.80;;;;;;;;;;5022295;28;20517;-78
2022/08/01 12:02:15;;;;;;;2.55;1.80;;;;;;;;;;5022340;28;20029;-77
2022/08/01 12:04:45;;;;;;;2.85;1.80;;;;;;;;;;5023212;28;20034;-78
2022/08/01 12:07:14;;;;;;;1.83;1.60;;;;;;;;;;5022273;28;20032;-78
2022/08/01 12:09:40;;;;;;;2.92;1.90;;;;;;;;;;5022748;28;20804;-77
2022/08/01 12:12:07;;;;;;;2.17;1.98;;;;;;;;;;5024261;28;20021;-78
2022/08/01 12:14:33;;;;;;;2.70;1.90;;;;;;;;;;5017622;28;20033;-76
2022/08/01 12:16:59;;;;;;;3.90;2.15;;;;;;;;;;5022350;28;20034;-77
2022/08/01 12:19:25;;;;;;;2.20;2.00;;;;;;;;;;5022412;28;20033;-78
2022/08/01 12:22:07;;;;;;;2.58;2.13;;;;;;;;;;5020898;28;20034;-77
2022/08/01 12:24:37;;;;;;;2.22;2.03;;;;;;;;;;5024623;28;20373;-77
2022/08/01 12:27:04;;;;;;;2.38;2.17;;;;;;;;;;5021399;28;20017;-77
2022/08/01 12:29:34;;;;;;;3.65;2.30;;;;;;;;;;5021971;28;20394;-78
2022/08/01 12:32:02;;;;;;;2.17;1.98;;;;;;;;;;5020736;28;20034;-78
2022/08/01 12:34:28;;;;;;;2.38;2.08;;;;;;;;;;5021305;28;20033;-77
2022/08/01 12:37:00;;;;;;;2.50;1.90;;;;;;;;;;5021190;28;20062;-78
2022/08/01 12:39:33;;;;;;;2.40;2.05;;;;;;;;;;5021656;28;20045;-77
2022/08/01 12:41:59;;;;;;;2.10;1.80;;;;;;;;;;5020152;28;20143;-77
2022/08/01 12:44:26;;;;;;;3.00;2.15;;;;;;;;;;5021416;28;20037;-77
2022/08/01 12:46:53;;;;;;;2.13;1.92;;;;;;;;;;5022535;28;20049;-76
2022/08/01 12:49:19;;;;;;;2.53;1.83;;;;;;;;;;5022838;28;20107;-79
2022/08/01 12:51:46;;;;;;;2.47;1.80;;;;;;;;;;5021862;28;20030;-78
2022/08/01 12:54:12;;;;;;;2.20;2.00;;;;;;;;;;5020469;28;20029;-76
2022/08/01 12:56:38;;;;;;;3.30;1.67;;;;;;;;;;5019801;28;20585;-78
2022/08/01 12:59:20;;;;;;;1.75;1.65;;;;;;;;;;5019291;28;20034;-78
2022/08/01 13:01:46;;;;;;;1.70;1.60;;;;;;;;;;5020096;28;20492;-77
2022/08/01 13:04:13;;;;;;;1.80;1.70;;;;;;;;;;5021230;28;20033;-78
2022/08/01 13:06:39;;;;;;;2.55;1.80;;;;;;;;;;5021533;28;20447;-78
2022/08/01 13:09:10;;;;;;;2.85;1.60;;;;;;;;;;5017262;28;20435;-79
2022/08/01 13:11:36;;;;;;;4.32;2.50;;;;;;;;;;5019279;28;20322;-78
2022/08/01 13:14:02;;;;;;;2.38;1.90;;;;;;;;;;5016877;28;20022;-78
2022/08/01 13:16:29;;;;;;;2.28;1.80;;;;;;;;;;5019910;28;20112;-78
2022/08/01 13:18:56;;;;;;;1.98;1.77;;;;;;;;;;5016657;28;20057;-79
2022/08/01 13:21:23;;;;;;;2.58;2.08;;;;;;;;;;5020279;28;20033;-79
2022/08/01 13:24:06;;;;;;;1.75;1.60;;;;;;;;;;5021295;28;20029;-79
2022/08/01 13:26:39;;;;;;;2.10;1.52;;;;;;;;;;5016700;28;20075;-78
2022/08/01 13:29:07;;;;;;;2.55;1.38;;;;;;;;;;5018052;28;20021;-78
2022/08/01 13:31:34;;;;;;;2.05;1.45;;;;;;;;;;5017941;28;20483;-78
2022/08/01 13:34:00;;;;;;;2.60;1.60;;;;;;;;;;5019032;28;20026;-78
2022/08/01 13:36:30;;;;;;;1.65;1.55;;;;;;;;;;5019684;28;20410;-78
2022/08/01 13:41:41;;;;;;;1.70;1.60;;;;;;;;;;5022152;28;20048;-78
2022/08/01 13:44:08;;;;;;;2.03;1.60;;;;;;;;;;5020527;28;20527;-78
2022/08/01 13:46:35;;;;;;;2.17;1.98;;;;;;;;;;5023696;28;20394;-79
2022/08/01 13:49:02;;;;;;;3.28;2.22;;;;;;;;;;5022555;28;20093;-78
2022/08/01 13:51:28;;;;;;;2.50;1.70;;;;;;;;;;5022019;28;20029;-79
2022/08/01 13:53:54;;;;;;;3.80;1.90;;;;;;;;;;5022268;28;20061;-79
2022/08/01 13:56:20;;;;;;;1.77;1.67;;;;;;;;;;5022635;28;20029;-79
2022/08/01 13:58:50;;;;;;;1.88;1.40;;;;;;;;;;5026613;28;20030;-79
2022/08/01 14:01:16;;;;;;;2.97;1.70;;;;;;;;;;5027210;28;20132;-79
2022/08/01 14:03:43;;;;;;;1.85;1.67;;;;;;;;;;5021977;28;20045;-79
2022/08/01 14:06:09;;;;;;;3.40;1.70;;;;;;;;;;5020760;28;20032;-78
2022/08/01 14:08:35;;;;;;;1.98;1.73;;;;;;;;;;5020756;28;20033;-79
2022/08/01 14:11:01;;;;;;;1.88;1.70;;;;;;;;;;5021961;28;20608;-79
2022/08/01 14:13:28;;;;;;;1.85;1.70;;;;;;;;;;5022100;28;20083;-78
2022/08/01 14:15:54;;;;;;;1.90;1.67;;;;;;;;;;5020333;28;20029;-79
2022/08/01 14:18:21;;;;;;;1.77;1.67;;;;;;;;;;5025040;28;20057;-78
2022/08/01 14:20:47;;;;;;;2.30;1.83;;;;;;;;;;5026982;28;20036;-78
2022/08/01 14:23:13;;;;;;;2.28;2.00;;;;;;;;;;5028150;28;20029;-78
2022/08/01 14:25:40;;;;;;;2.65;1.60;;;;;;;;;;5025534;28;20017;-78
2022/08/01 14:28:06;;;;;;;1.77;1.50;;;;;;;;;;5031358;28;20396;-77
2022/08/01 14:30:33;;;;;;;1.60;1.50;;;;;;;;;;5023302;28;20499;-77
2022/08/01 14:32:59;;;;;;;1.63;1.40;;;;;;;;;;5022476;28;20595;-77
2022/08/01 14:35:25;;;;;;;1.60;1.50;;;;;;;;;;5022056;28;20032;-77
2022/08/01 14:37:52;;;;;;;1.63;1.40;;;;;;;;;;5020499;28;20026;-77
2022/08/01 14:40:18;;;;;;;1.50;1.40;;;;;;;;;;5029822;28;20534;-77
2022/08/01 14:42:44;;;;;;;2.47;1.70;;;;;;;;;;5025013;28;20048;-78
2022/08/01 14:45:11;;;;;;;1.40;1.30;;;;;;;;;;5022901;28;20033;-77
2022/08/01 14:47:37;;;;;;;9.15;1.63;;;;;;;;;;5023863;28;20032;-78